createdAt,value
2019-03-11T00:00:16.806Z,8.47
2019-03-11T00:02:45.235Z,10.70
2019-03-11T00:05:13.660Z,12.30
2019-03-11T00:07:42.063Z,13.00
2019-03-11T00:10:10.555Z,12.33
2019-03-11T00:12:38.960Z,10.43
2019-03-11T00:15:08.824Z,11.90
2019-03-11T00:17:37.233Z,11.33
2019-03-11T00:20:07.987Z,12.27
2019-03-11T00:22:36.391Z,9.80
2019-03-11T00:25:05.552Z,12.40
2019-03-11T00:27:33.968Z,13.07
2019-03-11T00:30:04.779Z,10.23
2019-03-11T00:32:33.159Z,13.87
2019-03-11T00:35:01.585Z,14.90
2019-03-11T00:37:29.996Z,10.23
2019-03-11T00:39:58.420Z,9.07
2019-03-11T00:42:26.852Z,12.50
2019-03-11T00:44:55.262Z,9.47
2019-03-11T00:47:23.660Z,10.50
2019-03-11T00:49:52.068Z,12.77
2019-03-11T00:52:20.471Z,14.17
2019-03-11T00:54:48.951Z,12.53
2019-03-11T00:57:17.355Z,10.63
2019-03-11T00:59:45.781Z,9.77
2019-03-11T01:02:14.174Z,17.20
2019-03-11T01:04:42.703Z,11.80
2019-03-11T01:07:11.127Z,9.53
2019-03-11T01:09:39.580Z,13.77
2019-03-11T01:12:07.994Z,8.50
2019-03-11T01:14:36.404Z,9.30
2019-03-11T01:17:04.803Z,12.00
2019-03-11T01:19:33.202Z,13.20
2019-03-11T01:22:01.632Z,10.07
2019-03-11T01:24:30.047Z,10.27
2019-03-11T01:26:58.484Z,12.33
2019-03-11T01:29:26.900Z,14.60
2019-03-11T01:31:55.321Z,14.53
2019-03-11T01:34:23.740Z,12.57
2019-03-11T01:36:52.163Z,11.77
2019-03-11T01:39:20.594Z,13.10
2019-03-11T01:41:48.991Z,13.67
2019-03-11T01:44:17.403Z,12.13
2019-03-11T01:46:45.824Z,11.13
2019-03-11T01:49:14.304Z,11.30
2019-03-11T01:51:42.742Z,10.83
2019-03-11T01:54:11.169Z,11.60
2019-03-11T01:56:39.573Z,10.37
2019-03-11T01:59:08.018Z,12.07
2019-03-11T02:01:36.488Z,13.67
2019-03-11T02:04:04.919Z,16.00
2019-03-11T02:06:33.362Z,8.30
2019-03-11T02:09:01.773Z,11.53
2019-03-11T02:11:30.186Z,11.73
2019-03-11T02:13:58.597Z,7.27
2019-03-11T02:16:27.115Z,10.27
2019-03-11T02:18:55.520Z,13.00
2019-03-11T02:21:23.943Z,12.47
2019-03-11T02:23:52.352Z,17.57
2019-03-11T02:26:20.789Z,12.57
2019-03-11T02:28:49.190Z,12.83
2019-03-11T02:31:17.703Z,13.40
2019-03-11T02:33:46.095Z,16.23
2019-03-11T02:36:14.525Z,10.77
2019-03-11T02:38:42.944Z,10.60
2019-03-11T02:41:11.365Z,9.80
2019-03-11T02:43:39.804Z,12.33
2019-03-11T02:46:08.227Z,13.13
2019-03-11T02:48:36.632Z,15.97
2019-03-11T02:51:05.060Z,10.10
2019-03-11T02:53:33.491Z,14.70
2019-03-11T02:56:01.926Z,7.27
2019-03-11T02:58:30.339Z,9.73
2019-03-11T03:01:03.119Z,11.50
2019-03-11T03:03:36.309Z,15.23
2019-03-11T03:06:06.618Z,13.67
2019-03-11T03:08:35.060Z,12.53
2019-03-11T03:11:03.476Z,11.20
2019-03-11T03:13:31.967Z,9.97
2019-03-11T03:16:00.392Z,15.17
2019-03-11T03:18:28.871Z,12.47
2019-03-11T03:20:57.281Z,15.07
2019-03-11T03:23:25.714Z,6.67
2019-03-11T03:25:54.102Z,9.30
2019-03-11T03:28:22.523Z,9.53
2019-03-11T03:30:50.927Z,9.00
2019-03-11T03:33:19.369Z,11.50
2019-03-11T03:35:47.835Z,8.40
2019-03-11T03:38:29.932Z,8.73
2019-03-11T03:40:46.400Z,11.50
2019-03-11T03:43:14.857Z,9.37
2019-03-11T03:45:43.361Z,13.03
2019-03-11T03:48:11.959Z,11.70
2019-03-11T03:50:40.913Z,8.67
2019-03-11T03:53:09.482Z,8.93
2019-03-11T03:55:38.018Z,5.07
2019-03-11T03:58:06.498Z,2.23
2019-03-11T04:00:35.020Z,2.63
2019-03-11T04:03:03.401Z,1.77
2019-03-11T04:05:31.806Z,0.80
2019-03-11T04:08:00.318Z,0.40
2019-03-11T04:10:32.202Z,1.43
2019-03-11T04:12:59.002Z,2.73
2019-03-11T04:15:27.424Z,2.23
2019-03-11T04:17:55.968Z,3.27
2019-03-11T04:20:26.225Z,0.87
2019-03-11T04:22:54.653Z,1.37
2019-03-11T04:25:23.085Z,2.73
2019-03-11T04:27:51.948Z,1.33
2019-03-11T04:30:22.515Z,2.03
2019-03-11T04:32:51.108Z,0.80
2019-03-11T04:35:19.533Z,1.03
2019-03-11T04:37:48.026Z,1.17
2019-03-11T04:40:16.811Z,1.13
2019-03-11T04:42:45.216Z,2.33
2019-03-11T04:45:14.762Z,1.13
2019-03-11T04:47:43.616Z,1.27
2019-03-11T04:50:19.629Z,4.07
2019-03-11T04:52:48.056Z,2.43
2019-03-11T04:55:17.018Z,3.63
2019-03-11T04:57:55.132Z,0.97
2019-03-11T05:00:25.626Z,3.43
2019-03-11T05:02:54.028Z,4.07
2019-03-11T05:05:22.440Z,1.10
2019-03-11T05:07:50.911Z,3.47
2019-03-11T05:10:19.335Z,3.53
2019-03-11T05:12:47.748Z,2.93
2019-03-11T05:15:16.261Z,1.83
2019-03-11T05:17:45.227Z,5.07
2019-03-11T05:20:17.132Z,2.80
2019-03-11T05:22:45.566Z,2.17
2019-03-11T05:25:14.914Z,4.20
2019-03-11T05:27:43.404Z,2.57
2019-03-11T05:30:16.543Z,4.97
2019-03-11T05:32:44.944Z,2.87
2019-03-11T05:35:13.499Z,6.10
2019-03-11T05:37:41.908Z,2.13
2019-03-11T05:40:12.663Z,4.90
2019-03-11T05:42:41.086Z,2.23
2019-03-11T05:45:11.623Z,3.63
2019-03-11T05:47:40.038Z,6.30
2019-03-11T05:50:14.427Z,10.57
2019-03-11T05:52:43.037Z,4.20
2019-03-11T05:55:12.517Z,2.60
2019-03-11T05:57:41.011Z,5.60
2019-03-11T06:00:18.727Z,3.30
2019-03-11T06:02:47.203Z,4.53
2019-03-11T06:05:15.693Z,3.63
2019-03-11T06:07:44.176Z,6.50
2019-03-11T06:10:14.467Z,5.83
2019-03-11T06:12:42.961Z,5.13
2019-03-11T06:15:13.354Z,6.00
2019-03-11T06:17:41.919Z,3.23
2019-03-11T06:20:20.707Z,5.37
2019-03-11T06:22:49.140Z,6.93
2019-03-11T06:25:17.552Z,3.37
2019-03-11T06:27:45.967Z,3.07
2019-03-11T06:30:14.466Z,2.70
2019-03-11T06:32:42.880Z,5.03
2019-03-11T06:35:11.388Z,2.73
2019-03-11T06:37:39.881Z,3.87
2019-03-11T06:40:10.501Z,3.37
2019-03-11T06:42:39.044Z,2.13
2019-03-11T06:45:09.799Z,4.17
2019-03-11T06:47:38.211Z,2.53
2019-03-11T06:50:12.047Z,2.27
2019-03-11T06:52:40.510Z,2.57
2019-03-11T06:55:10.289Z,2.93
2019-03-11T06:57:38.690Z,2.63
2019-03-11T07:00:12.855Z,3.23
2019-03-11T07:02:41.260Z,2.53
2019-03-11T07:05:19.385Z,4.63
2019-03-11T07:07:39.879Z,3.67
2019-03-11T07:10:13.617Z,6.30
2019-03-11T07:12:42.017Z,2.63
2019-03-11T07:15:11.877Z,4.00
2019-03-11T07:17:40.289Z,4.40
2019-03-11T07:20:19.101Z,6.40
2019-03-11T07:22:47.574Z,2.30
2019-03-11T07:25:16.070Z,3.83
2019-03-11T07:27:44.489Z,3.97
2019-03-11T07:30:15.107Z,4.47
2019-03-11T07:32:43.500Z,3.17
2019-03-11T07:35:12.148Z,8.13
2019-03-11T07:37:40.585Z,3.80
2019-03-11T07:40:13.567Z,2.97
2019-03-11T07:42:42.023Z,5.10
2019-03-11T07:45:12.677Z,5.17
2019-03-11T07:47:41.120Z,5.23
2019-03-11T07:50:11.127Z,6.27
2019-03-11T07:52:39.561Z,4.43
2019-03-11T07:55:12.822Z,7.77
2019-03-11T07:57:41.228Z,3.63
2019-03-11T08:00:19.882Z,4.40
2019-03-11T08:02:48.302Z,2.40
2019-03-11T08:05:16.791Z,3.57
2019-03-11T08:07:45.269Z,5.00
2019-03-11T08:10:22.036Z,4.50
2019-03-11T08:12:50.449Z,5.43
2019-03-11T08:15:18.843Z,4.90
2019-03-11T08:17:47.276Z,3.87
2019-03-11T08:20:16.509Z,4.70
2019-03-11T08:22:44.941Z,6.97
2019-03-11T08:25:15.564Z,4.00
2019-03-11T08:27:44.172Z,6.07
2019-03-11T08:30:17.376Z,5.73
2019-03-11T08:32:45.783Z,6.57
2019-03-11T08:35:14.272Z,6.47
2019-03-11T08:37:42.696Z,9.30
2019-03-11T08:40:14.189Z,4.23
2019-03-11T08:42:42.651Z,5.97
2019-03-11T08:45:13.911Z,3.10
2019-03-11T08:47:42.360Z,3.30
2019-03-11T08:50:15.040Z,6.03
2019-03-11T08:52:43.453Z,7.07
2019-03-11T08:55:12.040Z,4.00
2019-03-11T08:57:41.502Z,3.87
2019-03-11T09:00:20.981Z,3.83
2019-03-11T09:02:49.403Z,2.73
2019-03-11T09:05:17.896Z,5.43
2019-03-11T09:07:46.294Z,6.93
2019-03-11T09:10:15.868Z,3.60
2019-03-11T09:12:44.324Z,3.33
2019-03-11T09:15:15.819Z,8.50
2019-03-11T09:17:44.223Z,4.23
2019-03-11T09:20:16.608Z,4.53
2019-03-11T09:22:45.100Z,6.60
2019-03-11T09:25:16.220Z,5.27
2019-03-11T09:27:44.623Z,1.87
2019-03-11T09:30:23.674Z,3.53
2019-03-11T09:32:52.086Z,5.23
2019-03-11T09:35:20.503Z,5.00
2019-03-11T09:37:49.162Z,6.67
2019-03-11T09:40:21.116Z,3.80
2019-03-11T09:42:50.002Z,3.77
2019-03-11T09:45:19.257Z,3.10
2019-03-11T09:47:47.813Z,3.13
2019-03-11T09:50:16.860Z,3.43
2019-03-11T09:52:45.317Z,4.50
2019-03-11T09:55:19.307Z,4.40
2019-03-11T09:57:47.701Z,3.23
2019-03-11T10:00:18.930Z,3.97
2019-03-11T10:02:52.210Z,2.37
2019-03-11T10:05:17.527Z,2.37
2019-03-11T10:07:46.116Z,5.40
2019-03-11T10:10:16.755Z,5.20
2019-03-11T10:12:45.173Z,3.37
2019-03-11T10:15:15.908Z,3.30
2019-03-11T10:17:44.342Z,3.10
2019-03-11T10:20:14.773Z,4.63
2019-03-11T10:22:43.248Z,3.53
2019-03-11T10:25:12.144Z,2.80
2019-03-11T10:27:40.563Z,1.90
2019-03-11T10:30:18.165Z,4.73
2019-03-11T10:32:46.924Z,2.97
2019-03-11T10:35:31.298Z,3.00
2019-03-11T10:37:47.193Z,2.97
2019-03-11T10:40:26.602Z,3.50
2019-03-11T10:42:55.133Z,3.13
2019-03-11T10:45:31.044Z,4.10
2019-03-11T10:47:54.055Z,3.53
2019-03-11T10:50:22.534Z,3.57
2019-03-11T10:52:51.016Z,3.70
2019-03-11T10:55:24.256Z,4.07
2019-03-11T10:57:52.758Z,2.93
2019-03-11T11:00:28.399Z,2.87
2019-03-11T11:02:56.943Z,2.40
2019-03-11T11:05:25.384Z,4.03
2019-03-11T11:07:53.785Z,4.50
2019-03-11T11:10:22.303Z,2.33
2019-03-11T11:12:50.714Z,5.83
2019-03-11T11:15:23.997Z,4.73
2019-03-11T11:17:52.948Z,2.00
2019-03-11T11:20:22.610Z,5.33
2019-03-11T11:22:51.853Z,3.20
2019-03-11T11:25:21.508Z,2.73
2019-03-11T11:27:50.093Z,2.67
2019-03-11T11:30:26.601Z,4.33
2019-03-11T11:32:55.068Z,5.77
2019-03-11T11:35:23.472Z,2.43
2019-03-11T11:37:51.953Z,4.67
2019-03-11T11:40:24.807Z,8.53
2019-03-11T11:42:53.285Z,4.37
2019-03-11T11:45:23.027Z,5.63
2019-03-11T11:47:51.442Z,3.10
2019-03-11T11:50:24.064Z,2.00
2019-03-11T11:52:52.544Z,4.37
2019-03-11T11:55:22.294Z,5.93
2019-03-11T11:57:51.197Z,3.43
2019-03-11T12:00:29.535Z,4.30
2019-03-11T12:02:58.026Z,2.67
2019-03-11T12:05:26.512Z,4.63
2019-03-11T12:07:54.913Z,3.43
2019-03-11T12:10:24.964Z,4.73
2019-03-11T12:12:53.448Z,2.93
2019-03-11T12:15:21.903Z,4.37
2019-03-11T12:17:50.319Z,6.87
2019-03-11T12:20:21.795Z,2.20
2019-03-11T12:22:50.276Z,6.80
2019-03-11T12:25:18.842Z,2.07
2019-03-11T12:27:53.623Z,3.13
2019-03-11T12:30:30.911Z,3.63
2019-03-11T12:32:59.453Z,2.70
2019-03-11T12:35:28.298Z,2.10
2019-03-11T12:37:56.954Z,3.27
2019-03-11T12:40:26.037Z,2.80
2019-03-11T12:42:54.739Z,1.90
2019-03-11T12:45:24.485Z,3.80
2019-03-11T12:47:52.918Z,1.97
2019-03-11T12:50:29.536Z,3.63
2019-03-11T12:52:57.976Z,2.37
2019-03-11T12:55:26.396Z,3.50
2019-03-11T12:57:54.823Z,2.80
2019-03-11T13:00:25.162Z,2.87
2019-03-11T13:02:53.743Z,3.57
2019-03-11T13:05:22.219Z,3.23
2019-03-11T13:07:50.659Z,2.90
2019-03-11T13:10:23.216Z,1.87
2019-03-11T13:12:51.784Z,2.27
2019-03-11T13:15:20.837Z,4.30
2019-03-11T13:17:49.779Z,2.03
2019-03-11T13:20:30.288Z,4.80
2019-03-11T13:22:58.989Z,2.70
2019-03-11T13:25:27.488Z,3.33
2019-03-11T13:27:55.910Z,2.90
2019-03-11T13:30:24.317Z,2.67
2019-03-11T13:32:52.728Z,3.37
2019-03-11T13:35:21.160Z,3.17
2019-03-11T13:37:49.594Z,3.70
2019-03-11T13:40:17.998Z,5.07
2019-03-11T13:42:46.411Z,4.03
2019-03-11T13:45:17.429Z,4.37
2019-03-11T13:47:45.936Z,4.40
2019-03-11T13:50:15.964Z,3.70
2019-03-11T13:52:44.531Z,3.57
2019-03-11T13:55:15.500Z,1.57
2019-03-11T13:57:44.100Z,4.60
2019-03-11T14:00:20.407Z,5.10
2019-03-11T14:02:49.296Z,2.03
2019-03-11T14:05:17.825Z,3.13
2019-03-11T14:07:46.248Z,6.73
2019-03-11T14:10:15.627Z,3.80
2019-03-11T14:12:44.184Z,3.67
2019-03-11T14:15:17.603Z,3.23
2019-03-11T14:17:46.073Z,1.93
2019-03-11T14:20:15.183Z,7.20
2019-03-11T14:22:43.638Z,4.20
2019-03-11T14:25:13.254Z,1.47
2019-03-11T14:27:41.651Z,2.73
2019-03-11T14:30:12.746Z,3.53
2019-03-11T14:32:41.151Z,3.43
2019-03-11T14:35:13.199Z,3.43
2019-03-11T14:37:41.664Z,2.97
2019-03-11T14:40:18.098Z,2.43
2019-03-11T14:42:46.544Z,2.90
2019-03-11T14:45:19.807Z,2.70
2019-03-11T14:47:48.304Z,2.10
2019-03-11T14:50:17.589Z,2.63
2019-03-11T14:52:46.123Z,4.53
2019-03-11T14:55:14.886Z,2.57
2019-03-11T14:57:43.413Z,3.03
2019-03-11T15:00:18.568Z,3.70
2019-03-11T15:02:47.267Z,1.73
2019-03-11T15:05:17.638Z,1.97
2019-03-11T15:07:46.287Z,3.67
2019-03-11T15:10:19.558Z,3.47
2019-03-11T15:12:48.600Z,3.57
2019-03-11T15:15:18.957Z,4.20
2019-03-11T15:17:47.369Z,2.60
2019-03-11T15:20:15.953Z,4.67
2019-03-11T15:22:44.488Z,2.03
2019-03-11T15:25:14.796Z,4.77
2019-03-11T15:27:43.206Z,2.90
2019-03-11T15:30:19.553Z,2.40
2019-03-11T15:32:48.023Z,2.50
2019-03-11T15:35:16.633Z,3.90
2019-03-11T15:37:45.164Z,2.63
2019-03-11T15:40:17.747Z,3.90
2019-03-11T15:42:46.242Z,2.70
2019-03-11T15:45:16.671Z,3.40
2019-03-11T15:47:45.359Z,3.17
2019-03-11T15:50:25.373Z,3.93
2019-03-11T15:52:53.794Z,3.80
2019-03-11T15:55:22.252Z,2.37
2019-03-11T15:57:50.736Z,2.00
2019-03-11T16:00:20.919Z,2.33
2019-03-11T16:02:49.349Z,4.90
2019-03-11T16:05:20.079Z,3.53
2019-03-11T16:07:49.225Z,3.20
2019-03-11T16:10:17.960Z,0.97
2019-03-11T16:12:46.547Z,5.27
2019-03-11T16:15:16.496Z,5.17
2019-03-11T16:17:44.987Z,3.97
2019-03-11T16:20:20.718Z,4.47
2019-03-11T16:22:49.260Z,5.57
2019-03-11T16:25:17.829Z,5.03
2019-03-11T16:27:46.234Z,2.23
2019-03-11T16:30:19.674Z,5.90
2019-03-11T16:32:58.629Z,3.73
2019-03-11T16:35:19.031Z,4.63
2019-03-11T16:37:47.432Z,2.63
2019-03-11T16:40:15.908Z,3.43
2019-03-11T16:42:44.323Z,3.23
2019-03-11T16:45:18.091Z,2.43
2019-03-11T16:47:47.755Z,2.60
2019-03-11T16:50:24.079Z,2.33
2019-03-11T16:52:52.580Z,2.17
2019-03-11T16:55:23.793Z,1.90
2019-03-11T16:57:53.669Z,2.27
2019-03-11T17:00:39.371Z,2.67
2019-03-11T17:03:07.857Z,4.20
2019-03-11T17:05:36.443Z,4.03
2019-03-11T17:08:05.026Z,4.13
2019-03-11T17:10:33.433Z,3.17
2019-03-11T17:13:01.843Z,4.47
2019-03-11T17:15:30.328Z,2.63
2019-03-11T17:17:58.811Z,3.13
2019-03-11T17:20:27.291Z,2.17
2019-03-11T17:22:55.856Z,2.53
2019-03-11T17:25:24.253Z,2.60
2019-03-11T17:27:52.747Z,3.73
2019-03-11T17:30:25.553Z,4.93
2019-03-11T17:32:56.539Z,3.33
2019-03-11T17:35:25.034Z,3.03
2019-03-11T17:37:53.559Z,1.40
2019-03-11T17:40:23.690Z,5.40
2019-03-11T17:42:52.451Z,3.53
2019-03-11T17:45:21.134Z,3.90
2019-03-11T17:47:49.661Z,2.97
2019-03-11T17:50:20.293Z,1.77
2019-03-11T17:52:49.053Z,3.80
2019-03-11T17:55:18.403Z,3.90
2019-03-11T17:57:46.900Z,4.57
2019-03-11T18:00:19.456Z,4.60
2019-03-11T18:02:47.956Z,2.90
2019-03-11T18:05:16.801Z,4.33
2019-03-11T18:07:45.311Z,3.53
2019-03-11T18:10:14.152Z,3.57
2019-03-11T18:12:42.586Z,3.93
2019-03-11T18:15:12.991Z,2.90
2019-03-11T18:17:41.775Z,3.40
2019-03-11T18:20:15.044Z,3.70
2019-03-11T18:22:43.533Z,2.50
2019-03-11T18:25:14.571Z,3.17
2019-03-11T18:27:43.048Z,4.00
2019-03-11T18:30:14.236Z,1.57
2019-03-11T18:32:42.678Z,5.97
2019-03-11T18:35:11.240Z,2.07
2019-03-11T18:37:39.640Z,3.90
2019-03-11T18:40:13.559Z,5.07
2019-03-11T18:42:41.987Z,2.90
2019-03-11T18:45:11.941Z,2.70
2019-03-11T18:47:40.353Z,2.43
2019-03-11T18:50:14.364Z,3.90
2019-03-11T18:52:42.770Z,2.87
2019-03-11T18:55:11.297Z,2.77
2019-03-11T18:57:39.786Z,4.57
2019-03-11T19:00:11.546Z,2.70
2019-03-11T19:02:39.961Z,2.90
2019-03-11T19:05:11.142Z,2.07
2019-03-11T19:07:39.587Z,3.70
2019-03-11T19:10:10.587Z,2.60
2019-03-11T19:12:39.075Z,2.87
2019-03-11T19:15:10.522Z,4.17
2019-03-11T19:17:39.075Z,3.03
2019-03-11T19:20:13.465Z,3.90
2019-03-11T19:22:41.884Z,5.27
2019-03-11T19:25:10.928Z,4.47
2019-03-11T19:27:39.454Z,2.67
2019-03-11T19:30:13.398Z,3.17
2019-03-11T19:32:41.918Z,4.13
2019-03-11T19:35:10.432Z,3.90
2019-03-11T19:37:38.894Z,2.30
2019-03-11T19:40:13.138Z,4.67
2019-03-11T19:42:41.628Z,2.57
2019-03-11T19:45:12.268Z,3.03
2019-03-11T19:47:40.913Z,27.33
2019-03-11T19:50:14.573Z,10.50
2019-03-11T19:52:43.007Z,2.40
2019-03-11T19:55:11.578Z,3.50
2019-03-11T19:57:40.015Z,3.93
2019-03-11T20:00:14.511Z,6.23
2019-03-11T20:02:42.988Z,2.90
2019-03-11T20:05:13.877Z,4.63
2019-03-11T20:07:42.386Z,4.23
2019-03-11T20:10:12.119Z,3.70
2019-03-11T20:12:40.541Z,2.43
2019-03-11T20:15:12.435Z,3.07
2019-03-11T20:17:40.978Z,5.17
2019-03-11T20:20:12.092Z,5.83
2019-03-11T20:22:40.554Z,6.17
2019-03-11T20:25:12.073Z,5.30
2019-03-11T20:27:40.620Z,4.03
2019-03-11T20:30:17.642Z,2.43
2019-03-11T20:32:46.144Z,3.93
2019-03-11T20:35:17.269Z,6.13
2019-03-11T20:37:44.804Z,4.43
2019-03-11T20:40:13.547Z,4.93
2019-03-11T20:42:42.059Z,3.60
2019-03-11T20:45:17.915Z,2.87
2019-03-11T20:47:46.619Z,2.13
2019-03-11T20:50:16.081Z,3.20
2019-03-11T20:52:44.645Z,5.13
2019-03-11T20:55:17.917Z,4.77
2019-03-11T20:57:46.465Z,4.80
2019-03-11T21:00:24.875Z,7.40
2019-03-11T21:02:53.522Z,4.30
2019-03-11T21:05:30.558Z,4.13
2019-03-11T21:07:59.035Z,7.03
2019-03-11T21:10:27.494Z,4.30
2019-03-11T21:12:56.040Z,5.13
2019-03-11T21:15:24.655Z,7.20
2019-03-11T21:17:53.119Z,4.13
2019-03-11T21:20:21.547Z,2.53
2019-03-11T21:22:50.033Z,5.77
2019-03-11T21:25:21.992Z,3.50
2019-03-11T21:27:50.541Z,2.87
2019-03-11T21:30:24.117Z,5.47
2019-03-11T21:32:52.630Z,4.83
2019-03-11T21:35:21.137Z,4.73
2019-03-11T21:37:49.842Z,4.80
2019-03-11T21:40:19.668Z,4.70
2019-03-11T21:42:48.241Z,2.83
2019-03-11T21:45:17.730Z,7.30
2019-03-11T21:47:46.230Z,7.77
2019-03-11T21:50:17.250Z,6.67
2019-03-11T21:52:45.746Z,3.27
2019-03-11T21:55:14.237Z,6.20
2019-03-11T21:57:42.708Z,3.20
2019-03-11T22:00:16.280Z,4.23
2019-03-11T22:02:44.736Z,5.57
2019-03-11T22:05:13.147Z,6.13
2019-03-11T22:07:41.540Z,4.00
2019-03-11T22:10:20.285Z,4.90
2019-03-11T22:12:48.763Z,4.27
2019-03-11T22:15:25.268Z,3.77
2019-03-11T22:17:53.681Z,12.37
2019-03-11T22:20:22.111Z,4.20
2019-03-11T22:22:50.587Z,4.13
2019-03-11T22:25:20.196Z,5.07
2019-03-11T22:27:48.588Z,4.67
2019-03-11T22:30:24.754Z,4.37
2019-03-11T22:32:53.164Z,6.33
2019-03-11T22:35:21.590Z,5.07
2019-03-11T22:37:50.017Z,5.70
2019-03-11T22:40:20.062Z,5.20
2019-03-11T22:42:48.542Z,5.63
2019-03-11T22:45:20.984Z,6.03
2019-03-11T22:47:51.243Z,6.37
2019-03-11T22:50:20.280Z,6.50
2019-03-11T22:52:48.680Z,3.80
2019-03-11T22:55:18.648Z,4.77
2019-03-11T22:57:47.070Z,5.27
2019-03-11T23:00:35.109Z,7.60
2019-03-11T23:03:06.531Z,6.27
2019-03-11T23:05:33.802Z,5.23
2019-03-11T23:08:02.192Z,9.17
2019-03-11T23:10:30.630Z,3.37
2019-03-11T23:12:59.046Z,8.17
2019-03-11T23:15:27.508Z,4.00
2019-03-11T23:17:55.958Z,6.87
2019-03-11T23:20:24.360Z,6.87
2019-03-11T23:22:52.770Z,5.27
2019-03-11T23:25:21.176Z,5.97
2019-03-11T23:27:49.604Z,5.60
2019-03-11T23:30:18.141Z,3.20
2019-03-11T23:32:46.577Z,2.23
2019-03-11T23:35:14.964Z,4.23
2019-03-11T23:37:43.392Z,5.57
2019-03-11T23:40:11.807Z,8.53
2019-03-11T23:42:40.349Z,5.60
2019-03-11T23:45:12.513Z,4.40
2019-03-11T23:47:40.935Z,5.47
2019-03-11T23:50:14.550Z,7.53
2019-03-11T23:52:43.018Z,7.00
2019-03-11T23:55:12.317Z,9.43
2019-03-11T23:57:40.747Z,5.97
